sensor_id;sensor_type;location;lat;lon;timestamp;pressure;altitude;pressure_sealevel;temperature
79053;BMP280;68451;49.510;6.026;2023-03-23T00:00:37;97242.31;;;22.01
79053;BMP280;68451;49.510;6.026;2023-03-23T00:03:03;97230.41;;;21.90
79053;BMP280;68451;49.510;6.026;2023-03-23T00:05:28;97094.06;;;21.04
79053;BMP280;68451;49.510;6.026;2023-03-23T00:07:54;97242.91;;;21.89
79053;BMP280;68451;49.510;6.026;2023-03-23T00:10:20;97214.75;;;21.71
79053;BMP280;68451;49.510;6.026;2023-03-23T00:12:46;97129.88;;;21.15
79053;BMP280;68451;49.510;6.026;2023-03-23T00:15:15;97143.63;;;21.25
79053;BMP280;68451;49.510;6.026;2023-03-23T00:17:42;97161.78;;;21.40
79053;BMP280;68451;49.510;6.026;2023-03-23T00:20:08;97111.72;;;21.08
79053;BMP280;68451;49.510;6.026;2023-03-23T00:22:37;97242.78;;;21.95
79053;BMP280;68451;49.510;6.026;2023-03-23T00:25:04;97249.19;;;21.94
79053;BMP280;68451;49.510;6.026;2023-03-23T00:27:30;97245.91;;;21.97
79053;BMP280;68451;49.510;6.026;2023-03-23T00:29:55;97239.97;;;21.91
79053;BMP280;68451;49.510;6.026;2023-03-23T00:32:24;97215.09;;;21.87
79053;BMP280;68451;49.510;6.026;2023-03-23T00:34:57;97216.50;;;21.84
79053;BMP280;68451;49.510;6.026;2023-03-23T00:37:26;97218.69;;;21.91
79053;BMP280;68451;49.510;6.026;2023-03-23T00:39:52;97214.63;;;21.85
79053;BMP280;68451;49.510;6.026;2023-03-23T00:42:22;97184.47;;;21.72
79053;BMP280;68451;49.510;6.026;2023-03-23T00:44:48;97214.47;;;21.90
79053;BMP280;68451;49.510;6.026;2023-03-23T00:47:13;97211.34;;;21.97
79053;BMP280;68451;49.510;6.026;2023-03-23T00:49:41;97079.47;;;21.15
79053;BMP280;68451;49.510;6.026;2023-03-23T00:52:06;97202.31;;;21.98
79053;BMP280;68451;49.510;6.026;2023-03-23T00:54:33;97176.50;;;21.81
79053;BMP280;68451;49.510;6.026;2023-03-23T00:57:00;97076.47;;;21.16
79053;BMP280;68451;49.510;6.026;2023-03-23T00:59:26;97181.81;;;21.81
79053;BMP280;68451;49.510;6.026;2023-03-23T01:01:52;97212.63;;;21.99
79053;BMP280;68451;49.510;6.026;2023-03-23T01:04:17;96894.94;;;19.92
79053;BMP280;68451;49.510;6.026;2023-03-23T01:06:44;97186.19;;;21.77
79053;BMP280;68451;49.510;6.026;2023-03-23T01:09:14;97221.22;;;21.96
79053;BMP280;68451;49.510;6.026;2023-03-23T01:11:44;97213.56;;;21.95
79053;BMP280;68451;49.510;6.026;2023-03-23T01:14:12;97183.38;;;21.73
79053;BMP280;68451;49.510;6.026;2023-03-23T01:16:38;97218.09;;;21.94
79053;BMP280;68451;49.510;6.026;2023-03-23T01:19:03;97187.13;;;21.72
79053;BMP280;68451;49.510;6.026;2023-03-23T01:21:29;97212.25;;;21.83
79053;BMP280;68451;49.510;6.026;2023-03-23T01:23:54;97189.78;;;21.72
79053;BMP280;68451;49.510;6.026;2023-03-23T01:26:23;97113.03;;;21.28
79053;BMP280;68451;49.510;6.026;2023-03-23T01:28:48;97193.50;;;21.88
79053;BMP280;68451;49.510;6.026;2023-03-23T01:31:20;97163.50;;;21.79
79053;BMP280;68451;49.510;6.026;2023-03-23T01:33:46;97191.81;;;21.93
79053;BMP280;68451;49.510;6.026;2023-03-23T01:36:15;97188.34;;;21.92
79053;BMP280;68451;49.510;6.026;2023-03-23T01:38:45;97068.97;;;21.10
79053;BMP280;68451;49.510;6.026;2023-03-23T01:41:12;97186.47;;;21.84
79053;BMP280;68451;49.510;6.026;2023-03-23T01:43:59;97178.50;;;21.84
79053;BMP280;68451;49.510;6.026;2023-03-23T01:46:31;97056.16;;;21.12
79053;BMP280;68451;49.510;6.026;2023-03-23T01:49:06;97179.00;;;21.86
79053;BMP280;68451;49.510;6.026;2023-03-23T01:51:37;97149.63;;;21.74
79053;BMP280;68451;49.510;6.026;2023-03-23T01:54:05;97136.81;;;21.59
79053;BMP280;68451;49.510;6.026;2023-03-23T01:56:37;97081.50;;;21.26
79053;BMP280;68451;49.510;6.026;2023-03-23T01:59:06;97082.28;;;21.27
79053;BMP280;68451;49.510;6.026;2023-03-23T02:01:32;97185.88;;;21.87
79053;BMP280;68451;49.510;6.026;2023-03-23T02:04:02;97183.53;;;21.85
79053;BMP280;68451;49.510;6.026;2023-03-23T02:06:28;97157.41;;;21.70
79053;BMP280;68451;49.510;6.026;2023-03-23T02:08:54;97111.78;;;21.34
79053;BMP280;68451;49.510;6.026;2023-03-23T02:11:21;97089.59;;;21.21
79053;BMP280;68451;49.510;6.026;2023-03-23T02:13:48;97163.38;;;21.67
79053;BMP280;68451;49.510;6.026;2023-03-23T02:16:34;97198.53;;;21.90
79053;BMP280;68451;49.510;6.026;2023-03-23T02:22:19;97203.53;;;21.92
79053;BMP280;68451;49.510;6.026;2023-03-23T02:25:16;97192.13;;;21.91
79053;BMP280;68451;49.510;6.026;2023-03-23T02:28:31;97194.47;;;21.93
79053;BMP280;68451;49.510;6.026;2023-03-23T02:31:11;97192.00;;;21.96
79053;BMP280;68451;49.510;6.026;2023-03-23T02:33:53;97064.31;;;21.15
79053;BMP280;68451;49.510;6.026;2023-03-23T02:36:33;97044.28;;;21.00
79053;BMP280;68451;49.510;6.026;2023-03-23T02:39:08;96959.03;;;20.50
79053;BMP280;68451;49.510;6.026;2023-03-23T02:41:45;97141.97;;;21.72
79053;BMP280;68451;49.510;6.026;2023-03-23T02:44:13;97191.66;;;21.98
79053;BMP280;68451;49.510;6.026;2023-03-23T02:46:40;97157.91;;;21.81
79053;BMP280;68451;49.510;6.026;2023-03-23T02:49:07;97059.81;;;21.16
79053;BMP280;68451;49.510;6.026;2023-03-23T02:51:33;97153.22;;;21.78
79053;BMP280;68451;49.510;6.026;2023-03-23T02:54:01;97171.47;;;21.88
79053;BMP280;68451;49.510;6.026;2023-03-23T02:56:28;97169.00;;;21.92
79053;BMP280;68451;49.510;6.026;2023-03-23T02:58:55;97069.00;;;21.35
79053;BMP280;68451;49.510;6.026;2023-03-23T03:01:47;97174.16;;;21.97
79053;BMP280;68451;49.510;6.026;2023-03-23T03:04:18;97158.53;;;21.86
79053;BMP280;68451;49.510;6.026;2023-03-23T03:09:52;97189.34;;;21.96
79053;BMP280;68451;49.510;6.026;2023-03-23T03:12:36;97152.72;;;21.76
79053;BMP280;68451;49.510;6.026;2023-03-23T03:15:27;97177.16;;;21.95
79053;BMP280;68451;49.510;6.026;2023-03-23T03:18:07;96867.25;;;19.98
79053;BMP280;68451;49.510;6.026;2023-03-23T03:20:42;97164.28;;;21.80
79053;BMP280;68451;49.510;6.026;2023-03-23T03:23:09;97168.38;;;21.86
79053;BMP280;68451;49.510;6.026;2023-03-23T03:25:39;97200.72;;;21.97
79053;BMP280;68451;49.510;6.026;2023-03-23T03:28:07;96960.13;;;20.49
79053;BMP280;68451;49.510;6.026;2023-03-23T03:30:33;97183.56;;;21.94
79053;BMP280;68451;49.510;6.026;2023-03-23T03:33:01;97158.81;;;21.85
79053;BMP280;68451;49.510;6.026;2023-03-23T03:35:30;97153.66;;;21.80
79053;BMP280;68451;49.510;6.026;2023-03-23T03:37:57;97076.34;;;21.30
79053;BMP280;68451;49.510;6.026;2023-03-23T03:40:23;97078.69;;;21.31
79053;BMP280;68451;49.510;6.026;2023-03-23T03:42:49;97179.81;;;21.95
79053;BMP280;68451;49.510;6.026;2023-03-23T03:45:18;97141.66;;;21.82
79053;BMP280;68451;49.510;6.026;2023-03-23T03:47:44;97060.25;;;21.26
79053;BMP280;68451;49.510;6.026;2023-03-23T03:50:10;97153.50;;;21.85
79053;BMP280;68451;49.510;6.026;2023-03-23T03:52:37;97166.97;;;21.97
79053;BMP280;68451;49.510;6.026;2023-03-23T03:55:04;97140.09;;;21.73
79053;BMP280;68451;49.510;6.026;2023-03-23T03:57:30;97168.09;;;21.96
79053;BMP280;68451;49.510;6.026;2023-03-23T03:59:56;97153.66;;;21.88
79053;BMP280;68451;49.510;6.026;2023-03-23T04:02:21;97167.31;;;21.96
79053;BMP280;68451;49.510;6.026;2023-03-23T04:04:47;97069.47;;;21.29
79053;BMP280;68451;49.510;6.026;2023-03-23T04:07:14;97155.25;;;21.81
79053;BMP280;68451;49.510;6.026;2023-03-23T04:09:43;97140.38;;;21.80
79053;BMP280;68451;49.510;6.026;2023-03-23T04:12:12;97129.63;;;21.68
79053;BMP280;68451;49.510;6.026;2023-03-23T04:14:38;97177.94;;;21.96
79053;BMP280;68451;49.510;6.026;2023-03-23T04:17:03;97169.44;;;21.85
79053;BMP280;68451;49.510;6.026;2023-03-23T04:19:29;97054.78;;;21.14
79053;BMP280;68451;49.510;6.026;2023-03-23T04:21:58;97147.72;;;21.66
79053;BMP280;68451;49.510;6.026;2023-03-23T04:24:24;97193.66;;;21.92
79053;BMP280;68451;49.510;6.026;2023-03-23T04:26:50;96886.88;;;19.97
79053;BMP280;68451;49.510;6.026;2023-03-23T04:29:17;97059.13;;;21.10
79053;BMP280;68451;49.510;6.026;2023-03-23T04:31:44;97188.34;;;21.92
79053;BMP280;68451;49.510;6.026;2023-03-23T04:34:11;97178.06;;;21.91
79053;BMP280;68451;49.510;6.026;2023-03-23T04:36:39;97147.13;;;21.69
79053;BMP280;68451;49.510;6.026;2023-03-23T04:39:07;97152.44;;;21.69
79053;BMP280;68451;49.510;6.026;2023-03-23T04:41:36;97193.09;;;21.95
79053;BMP280;68451;49.510;6.026;2023-03-23T04:44:02;97085.41;;;21.20
79053;BMP280;68451;49.510;6.026;2023-03-23T04:46:28;97070.56;;;21.19
79053;BMP280;68451;49.510;6.026;2023-03-23T04:48:54;97203.72;;;21.95
79053;BMP280;68451;49.510;6.026;2023-03-23T04:51:20;97064.09;;;21.12
79053;BMP280;68451;49.510;6.026;2023-03-23T04:53:45;97162.56;;;21.75
79053;BMP280;68451;49.510;6.026;2023-03-23T04:56:11;97206.38;;;21.95
79053;BMP280;68451;49.510;6.026;2023-03-23T04:58:39;97153.03;;;21.66
79053;BMP280;68451;49.510;6.026;2023-03-23T05:01:06;97190.84;;;21.88
79053;BMP280;68451;49.510;6.026;2023-03-23T05:03:31;96901.06;;;20.01
79053;BMP280;68451;49.510;6.026;2023-03-23T05:05:57;97196.84;;;21.94
79053;BMP280;68451;49.510;6.026;2023-03-23T05:08:23;97120.88;;;21.50
79053;BMP280;68451;49.510;6.026;2023-03-23T05:10:53;97068.06;;;21.14
79053;BMP280;68451;49.510;6.026;2023-03-23T05:13:20;97177.13;;;21.78
79053;BMP280;68451;49.510;6.026;2023-03-23T05:15:46;97140.69;;;21.61
79053;BMP280;68451;49.510;6.026;2023-03-23T05:18:11;97173.34;;;21.79
79053;BMP280;68451;49.510;6.026;2023-03-23T05:20:37;97088.06;;;21.29
79053;BMP280;68451;49.510;6.026;2023-03-23T05:23:03;97023.22;;;20.95
79053;BMP280;68451;49.510;6.026;2023-03-23T05:25:28;97129.13;;;21.74
79053;BMP280;68451;49.510;6.026;2023-03-23T05:27:54;97109.47;;;21.50
79053;BMP280;68451;49.510;6.026;2023-03-23T05:30:20;97163.66;;;21.83
79053;BMP280;68451;49.510;6.026;2023-03-23T05:32:47;97184.63;;;21.93
79053;BMP280;68451;49.510;6.026;2023-03-23T05:35:17;97151.50;;;21.73
79053;BMP280;68451;49.510;6.026;2023-03-23T05:37:42;97152.44;;;21.69
79053;BMP280;68451;49.510;6.026;2023-03-23T05:40:09;97142.56;;;21.61
79053;BMP280;68451;49.510;6.026;2023-03-23T05:42:37;97187.78;;;21.95
79053;BMP280;68451;49.510;6.026;2023-03-23T05:45:04;97182.47;;;21.95
79053;BMP280;68451;49.510;6.026;2023-03-23T05:47:30;97166.94;;;21.80
79053;BMP280;68451;49.510;6.026;2023-03-23T05:49:56;97113.19;;;21.49
79053;BMP280;68451;49.510;6.026;2023-03-23T05:52:22;97172.63;;;21.96
79053;BMP280;68451;49.510;6.026;2023-03-23T05:54:50;97156.97;;;21.85
79053;BMP280;68451;49.510;6.026;2023-03-23T05:57:16;97141.78;;;21.86
79053;BMP280;68451;49.510;6.026;2023-03-23T05:59:44;96991.84;;;20.89
79053;BMP280;68451;49.510;6.026;2023-03-23T06:02:10;97161.34;;;21.81
79053;BMP280;68451;49.510;6.026;2023-03-23T06:04:36;97147.09;;;21.86
79053;BMP280;68451;49.510;6.026;2023-03-23T06:07:04;97174.50;;;21.95
79053;BMP280;68451;49.510;6.026;2023-03-23T06:09:30;97103.53;;;21.44
79053;BMP280;68451;49.510;6.026;2023-03-23T06:11:56;97175.06;;;21.83
79053;BMP280;68451;49.510;6.026;2023-03-23T06:14:21;97149.94;;;21.64
79053;BMP280;68451;49.510;6.026;2023-03-23T06:16:47;97206.03;;;21.97
79053;BMP280;68451;49.510;6.026;2023-03-23T06:19:13;97207.59;;;21.89
79053;BMP280;68451;49.510;6.026;2023-03-23T06:21:40;97094.31;;;21.16
79053;BMP280;68451;49.510;6.026;2023-03-23T06:24:06;97229.66;;;21.98
79053;BMP280;68451;49.510;6.026;2023-03-23T06:26:34;97160.22;;;21.48
79053;BMP280;68451;49.510;6.026;2023-03-23T06:29:00;97236.19;;;21.83
79053;BMP280;68451;49.510;6.026;2023-03-23T06:31:27;97207.56;;;21.63
79053;BMP280;68451;49.510;6.026;2023-03-23T06:33:52;97283.28;;;22.00
79053;BMP280;68451;49.510;6.026;2023-03-23T06:36:18;97271.41;;;21.98
79053;BMP280;68451;49.510;6.026;2023-03-23T06:38:44;97165.66;;;21.26
79053;BMP280;68451;49.510;6.026;2023-03-23T06:41:10;97269.19;;;21.82
79053;BMP280;68451;49.510;6.026;2023-03-23T06:43:37;97291.88;;;21.97
79053;BMP280;68451;49.510;6.026;2023-03-23T06:46:05;97173.44;;;21.22
79053;BMP280;68451;49.510;6.026;2023-03-23T06:48:31;97156.09;;;21.16
79053;BMP280;68451;49.510;6.026;2023-03-23T06:50:58;97159.25;;;21.18
79053;BMP280;68451;49.510;6.026;2023-03-23T06:53:23;97265.09;;;21.85
79053;BMP280;68451;49.510;6.026;2023-03-23T06:55:49;97256.34;;;21.76
79053;BMP280;68451;49.510;6.026;2023-03-23T06:58:15;97230.38;;;21.56
79053;BMP280;68451;49.510;6.026;2023-03-23T07:00:41;97285.13;;;21.91
79053;BMP280;68451;49.510;6.026;2023-03-23T07:03:08;97257.13;;;21.68
79053;BMP280;68451;49.510;6.026;2023-03-23T07:05:34;97176.25;;;21.17
79053;BMP280;68451;49.510;6.026;2023-03-23T07:08:01;97216.59;;;21.36
79053;BMP280;68451;49.510;6.026;2023-03-23T07:10:27;97223.16;;;21.48
79053;BMP280;68451;49.510;6.026;2023-03-23T07:12:53;97295.16;;;22.03
79053;BMP280;68451;49.510;6.026;2023-03-23T07:15:19;97294.88;;;22.04
79053;BMP280;68451;49.510;6.026;2023-03-23T07:17:44;97270.16;;;21.95
79053;BMP280;68451;49.510;6.026;2023-03-23T07:20:11;97271.72;;;21.96
79053;BMP280;68451;49.510;6.026;2023-03-23T07:22:36;97274.06;;;22.06
79053;BMP280;68451;49.510;6.026;2023-03-23T07:25:03;97115.31;;;21.04
79053;BMP280;68451;49.510;6.026;2023-03-23T07:27:30;97245.41;;;21.86
79053;BMP280;68451;49.510;6.026;2023-03-23T07:29:55;97273.28;;;22.06
79053;BMP280;68451;49.510;6.026;2023-03-23T07:32:22;97259.03;;;21.93
79053;BMP280;68451;49.510;6.026;2023-03-23T07:34:48;97152.53;;;21.29
79053;BMP280;68451;49.510;6.026;2023-03-23T07:37:13;97259.84;;;22.02
79053;BMP280;68451;49.510;6.026;2023-03-23T07:39:39;97173.34;;;21.44
79053;BMP280;68451;49.510;6.026;2023-03-23T07:42:09;97279.84;;;22.08
79053;BMP280;68451;49.510;6.026;2023-03-23T07:44:35;97286.75;;;22.09
79053;BMP280;68451;49.510;6.026;2023-03-23T07:47:00;97145.63;;;21.11
79053;BMP280;68451;49.510;6.026;2023-03-23T07:49:26;97294.22;;;21.99
79053;BMP280;68451;49.510;6.026;2023-03-23T07:51:52;97305.34;;;22.09
79053;BMP280;68451;49.510;6.026;2023-03-23T07:54:19;97114.97;;;20.88
79053;BMP280;68451;49.510;6.026;2023-03-23T07:56:44;97294.38;;;22.02
79053;BMP280;68451;49.510;6.026;2023-03-23T07:59:11;97292.34;;;21.99
79053;BMP280;68451;49.510;6.026;2023-03-23T08:01:38;97313.31;;;22.09
79053;BMP280;68451;49.510;6.026;2023-03-23T08:04:04;97299.25;;;22.09
79053;BMP280;68451;49.510;6.026;2023-03-23T08:06:32;97309.88;;;22.09
79053;BMP280;68451;49.510;6.026;2023-03-23T08:12:19;97310.16;;;21.99
79053;BMP280;68451;49.510;6.026;2023-03-23T08:14:46;97317.06;;;22.08
79053;BMP280;68451;49.510;6.026;2023-03-23T08:17:13;97267.91;;;21.71
79053;BMP280;68451;49.510;6.026;2023-03-23T08:19:39;97322.06;;;22.10
79053;BMP280;68451;49.510;6.026;2023-03-23T08:22:05;97325.50;;;22.10
79053;BMP280;68451;49.510;6.026;2023-03-23T08:24:31;97196.72;;;21.25
79053;BMP280;68451;49.510;6.026;2023-03-23T08:26:58;97196.13;;;21.28
79053;BMP280;68451;49.510;6.026;2023-03-23T08:29:24;97331.00;;;22.14
79053;BMP280;68451;49.510;6.026;2023-03-23T08:31:50;97329.88;;;22.15
79053;BMP280;68451;49.510;6.026;2023-03-23T08:34:16;97295.75;;;21.91
79053;BMP280;68451;49.510;6.026;2023-03-23T08:36:42;97340.22;;;22.16
79053;BMP280;68451;49.510;6.026;2023-03-23T08:39:10;97331.94;;;22.09
79053;BMP280;68451;49.510;6.026;2023-03-23T08:41:35;97232.84;;;21.52
79053;BMP280;68451;49.510;6.026;2023-03-23T08:44:01;97307.03;;;22.05
79053;BMP280;68451;49.510;6.026;2023-03-23T08:46:27;97229.41;;;21.52
79053;BMP280;68451;49.510;6.026;2023-03-23T08:48:52;97331.59;;;22.19
79053;BMP280;68451;49.510;6.026;2023-03-23T08:51:19;97309.88;;;22.09
79053;BMP280;68451;49.510;6.026;2023-03-23T08:53:45;97333.97;;;22.21
79053;BMP280;68451;49.510;6.026;2023-03-23T08:56:11;97339.28;;;22.21
79053;BMP280;68451;49.510;6.026;2023-03-23T08:58:38;97217.53;;;21.49
79053;BMP280;68451;49.510;6.026;2023-03-23T09:01:06;97280.59;;;21.92
79053;BMP280;68451;49.510;6.026;2023-03-23T09:03:32;97310.19;;;22.07
79053;BMP280;68451;49.510;6.026;2023-03-23T09:06:04;97339.44;;;22.24
79053;BMP280;68451;49.510;6.026;2023-03-23T09:08:30;97305.34;;;22.09
79053;BMP280;68451;49.510;6.026;2023-03-23T09:11:00;97296.41;;;22.05
79053;BMP280;68451;49.510;6.026;2023-03-23T09:13:26;97259.94;;;21.80
79053;BMP280;68451;49.510;6.026;2023-03-23T09:15:52;97356.31;;;22.28
79053;BMP280;68451;49.510;6.026;2023-03-23T09:18:18;97322.84;;;22.10
79053;BMP280;68451;49.510;6.026;2023-03-23T09:20:44;97334.75;;;22.21
79053;BMP280;68451;49.510;6.026;2023-03-23T09:23:09;97346.63;;;22.32
79053;BMP280;68451;49.510;6.026;2023-03-23T09:25:35;97261.78;;;21.71
79053;BMP280;68451;49.510;6.026;2023-03-23T09:28:00;97354.31;;;22.34
79053;BMP280;68451;49.510;6.026;2023-03-23T09:30:29;97250.09;;;21.72
79053;BMP280;68451;49.510;6.026;2023-03-23T09:32:55;97230.38;;;21.56
79053;BMP280;68451;49.510;6.026;2023-03-23T09:35:22;97326.28;;;22.19
79053;BMP280;68451;49.510;6.026;2023-03-23T09:37:49;97323.47;;;22.16
79053;BMP280;68451;49.510;6.026;2023-03-23T09:40:21;97362.44;;;22.38
79053;BMP280;68451;49.510;6.026;2023-03-23T09:43:06;97358.69;;;22.39
79053;BMP280;68451;49.510;6.026;2023-03-23T09:54:09;97252.91;;;21.75
79053;BMP280;68451;49.510;6.026;2023-03-23T09:56:36;97367.31;;;22.53
79053;BMP280;68451;49.510;6.026;2023-03-23T09:59:30;97361.34;;;22.56
79053;BMP280;68451;49.510;6.026;2023-03-23T10:02:12;97366.81;;;22.59
79053;BMP280;68451;49.510;6.026;2023-03-23T10:04:49;97351.19;;;22.58
79053;BMP280;68451;49.510;6.026;2023-03-23T10:07:18;97333.03;;;22.51
79053;BMP280;68451;49.510;6.026;2023-03-23T10:09:49;97246.06;;;21.92
79053;BMP280;68451;49.510;6.026;2023-03-23T10:12:25;97370.13;;;22.73
79053;BMP280;68451;49.510;6.026;2023-03-23T10:15:14;97367.16;;;22.75
79053;BMP280;68451;49.510;6.026;2023-03-23T10:17:52;97211.47;;;21.83
79053;BMP280;68451;49.510;6.026;2023-03-23T10:26:05;97340.69;;;22.61
79053;BMP280;68451;49.510;6.026;2023-03-23T10:28:44;97145.84;;;21.40
79053;BMP280;68451;49.510;6.026;2023-03-23T10:31:15;97362.13;;;22.82
79053;BMP280;68451;49.510;6.026;2023-03-23T10:33:42;97366.38;;;22.83
79053;BMP280;68451;49.510;6.026;2023-03-23T10:36:18;97365.72;;;22.86
79053;BMP280;68451;49.510;6.026;2023-03-23T10:38:49;97337.09;;;22.66
79053;BMP280;68451;49.510;6.026;2023-03-23T10:41:19;97377.16;;;22.87
79053;BMP280;68451;49.510;6.026;2023-03-23T10:43:46;97351.19;;;22.75
79053;BMP280;68451;49.510;6.026;2023-03-23T10:48:49;97370.28;;;22.86
79053;BMP280;68451;49.510;6.026;2023-03-23T10:51:19;97349.63;;;22.74
79053;BMP280;68451;49.510;6.026;2023-03-23T10:53:51;97069.75;;;21.02
79053;BMP280;68451;49.510;6.026;2023-03-23T10:56:27;97357.28;;;22.84
79053;BMP280;68451;49.510;6.026;2023-03-23T10:58:54;97342.72;;;22.82
79053;BMP280;68451;49.510;6.026;2023-03-23T11:01:31;97337.59;;;22.77
79053;BMP280;68451;49.510;6.026;2023-03-23T11:03:57;97365.13;;;22.89
79053;BMP280;68451;49.510;6.026;2023-03-23T11:06:27;97360.09;;;22.88
79053;BMP280;68451;49.510;6.026;2023-03-23T11:09:00;97321.59;;;22.68
79053;BMP280;68451;49.510;6.026;2023-03-23T11:11:29;97330.06;;;22.79
79053;BMP280;68451;49.510;6.026;2023-03-23T11:14:02;97347.88;;;22.95
79053;BMP280;68451;49.510;6.026;2023-03-23T11:16:33;97311.75;;;22.77
79053;BMP280;68451;49.510;6.026;2023-03-23T11:19:12;97304.06;;;22.84
79053;BMP280;68451;49.510;6.026;2023-03-23T11:21:39;97327.50;;;22.99
79053;BMP280;68451;49.510;6.026;2023-03-23T11:24:05;97144.91;;;21.88
79053;BMP280;68451;49.510;6.026;2023-03-23T11:26:35;97312.19;;;22.96
79053;BMP280;68451;49.510;6.026;2023-03-23T11:29:14;97312.31;;;23.00
79053;BMP280;68451;49.510;6.026;2023-03-23T11:31:44;97272.47;;;22.65
79053;BMP280;68451;49.510;6.026;2023-03-23T11:34:15;97316.84;;;22.99
79053;BMP280;68451;49.510;6.026;2023-03-23T11:36:48;97304.06;;;22.84
79053;BMP280;68451;49.510;6.026;2023-03-23T11:39:32;97316.09;;;22.90
79053;BMP280;68451;49.510;6.026;2023-03-23T11:42:13;97335.50;;;22.99
79053;BMP280;68451;49.510;6.026;2023-03-23T11:44:44;97329.25;;;22.95
79053;BMP280;68451;49.510;6.026;2023-03-23T11:47:35;97340.38;;;22.97
79053;BMP280;68451;49.510;6.026;2023-03-23T11:50:24;97336.59;;;22.98
79053;BMP280;68451;49.510;6.026;2023-03-23T11:55:57;97312.97;;;22.97
79053;BMP280;68451;49.510;6.026;2023-03-23T11:58:26;97331.72;;;23.00
79053;BMP280;68451;49.510;6.026;2023-03-23T12:01:04;97332.53;;;23.01
79053;BMP280;68451;49.510;6.026;2023-03-23T12:03:51;97324.09;;;22.99
79053;BMP280;68451;49.510;6.026;2023-03-23T12:06:54;97348.03;;;22.99
79053;BMP280;68451;49.510;6.026;2023-03-23T12:09:40;97249.81;;;22.33
79053;BMP280;68451;49.510;6.026;2023-03-23T12:12:17;97343.34;;;22.96
79053;BMP280;68451;49.510;6.026;2023-03-23T12:15:00;97350.38;;;23.00
79053;BMP280;68451;49.510;6.026;2023-03-23T12:17:51;97341.97;;;22.90
79053;BMP280;68451;49.510;6.026;2023-03-23T12:23:16;97113.34;;;21.61
79053;BMP280;68451;49.510;6.026;2023-03-23T12:26:08;97325.31;;;23.01
79053;BMP280;68451;49.510;6.026;2023-03-23T12:31:36;97327.69;;;23.03
79053;BMP280;68451;49.510;6.026;2023-03-23T12:42:47;97271.50;;;22.87
79053;BMP280;68451;49.510;6.026;2023-03-23T12:48:05;97210.22;;;22.49
79053;BMP280;68451;49.510;6.026;2023-03-23T12:50:43;97183.34;;;22.33
79053;BMP280;68451;49.510;6.026;2023-03-23T12:53:20;97205.66;;;22.58
79053;BMP280;68451;49.510;6.026;2023-03-23T12:55:50;97026.22;;;21.37
79053;BMP280;68451;49.510;6.026;2023-03-23T12:58:21;97302.41;;;23.17
79053;BMP280;68451;49.510;6.026;2023-03-23T13:00:56;97290.56;;;23.06
79053;BMP280;68451;49.510;6.026;2023-03-23T13:03:31;97313.97;;;23.21
79053;BMP280;68451;49.510;6.026;2023-03-23T13:08:56;97203.19;;;22.45
79053;BMP280;68451;49.510;6.026;2023-03-23T13:11:32;97306.81;;;23.13
79053;BMP280;68451;49.510;6.026;2023-03-23T13:17:17;97323.22;;;23.24
79053;BMP280;68451;49.510;6.026;2023-03-23T13:22:42;97308.34;;;23.23
79053;BMP280;68451;49.510;6.026;2023-03-23T13:25:17;97295.38;;;23.13
79053;BMP280;68451;49.510;6.026;2023-03-23T13:27:44;97283.66;;;23.05
79053;BMP280;68451;49.510;6.026;2023-03-23T13:30:22;97269.94;;;22.86
79053;BMP280;68451;49.510;6.026;2023-03-23T13:32:51;97330.59;;;23.18
79053;BMP280;68451;49.510;6.026;2023-03-23T13:35:19;97325.28;;;23.18
79053;BMP280;68451;49.510;6.026;2023-03-23T13:37:51;97306.81;;;23.13
79053;BMP280;68451;49.510;6.026;2023-03-23T13:40:30;97311.50;;;23.16
79053;BMP280;68451;49.510;6.026;2023-03-23T13:42:58;97266.69;;;22.81
79053;BMP280;68451;49.510;6.026;2023-03-23T13:45:45;97311.50;;;23.16
79053;BMP280;68451;49.510;6.026;2023-03-23T13:48:23;97297.59;;;23.02
79053;BMP280;68451;49.510;6.026;2023-03-23T13:50:56;97025.31;;;21.24
79053;BMP280;68451;49.510;6.026;2023-03-23T13:53:48;97319.81;;;23.15
79053;BMP280;68451;49.510;6.026;2023-03-23T13:56:21;97310.38;;;23.17
79053;BMP280;68451;49.510;6.026;2023-03-23T13:59:15;97311.66;;;23.20
79053;BMP280;68451;49.510;6.026;2023-03-23T14:01:42;97307.09;;;23.20
79053;BMP280;68451;49.510;6.026;2023-03-23T14:04:17;97300.25;;;23.11
79053;BMP280;68451;49.510;6.026;2023-03-23T14:06:45;97306.78;;;23.22
79053;BMP280;68451;49.510;6.026;2023-03-23T14:09:27;97309.44;;;23.22
79053;BMP280;68451;49.510;6.026;2023-03-23T14:11:58;97250.69;;;22.89
79053;BMP280;68451;49.510;6.026;2023-03-23T14:14:28;97294.25;;;23.23
79053;BMP280;68451;49.510;6.026;2023-03-23T14:19:54;97248.16;;;22.93
79053;BMP280;68451;49.510;6.026;2023-03-23T14:22:26;97302.56;;;23.21
79053;BMP280;68451;49.510;6.026;2023-03-23T14:24:59;97300.66;;;23.21
79053;BMP280;68451;49.510;6.026;2023-03-23T14:27:26;97215.16;;;22.68
79053;BMP280;68451;49.510;6.026;2023-03-23T14:30:06;97291.13;;;23.20
79053;BMP280;68451;49.510;6.026;2023-03-23T14:32:32;97288.78;;;23.19
79053;BMP280;68451;49.510;6.026;2023-03-23T14:34:59;97283.44;;;23.19
79053;BMP280;68451;49.510;6.026;2023-03-23T14:37:26;97260.63;;;23.09
79053;BMP280;68451;49.510;6.026;2023-03-23T14:39:53;97276.91;;;23.16
79053;BMP280;68451;49.510;6.026;2023-03-23T14:42:30;97275.50;;;23.10
79053;BMP280;68451;49.510;6.026;2023-03-23T14:44:57;97138.81;;;22.22
79053;BMP280;68451;49.510;6.026;2023-03-23T14:47:32;97232.38;;;22.79
79053;BMP280;68451;49.510;6.026;2023-03-23T14:50:00;97165.78;;;22.41
79053;BMP280;68451;49.510;6.026;2023-03-23T14:52:28;97260.66;;;23.01
79053;BMP280;68451;49.510;6.026;2023-03-23T14:54:54;97261.59;;;22.96
79053;BMP280;68451;49.510;6.026;2023-03-23T14:57:29;97288.63;;;23.15
79053;BMP280;68451;49.510;6.026;2023-03-23T14:59:55;97291.31;;;23.15
79053;BMP280;68451;49.510;6.026;2023-03-23T15:05:09;97222.88;;;22.69
79053;BMP280;68451;49.510;6.026;2023-03-23T15:07:37;97291.59;;;23.14
79053;BMP280;68451;49.510;6.026;2023-03-23T15:10:08;97246.28;;;22.93
79053;BMP280;68451;49.510;6.026;2023-03-23T15:12:36;97276.41;;;23.14
79053;BMP280;68451;49.510;6.026;2023-03-23T15:15:05;97278.28;;;23.14
79053;BMP280;68451;49.510;6.026;2023-03-23T15:17:36;97278.59;;;23.12
79053;BMP280;68451;49.510;6.026;2023-03-23T15:20:11;97271.75;;;23.11
79053;BMP280;68451;49.510;6.026;2023-03-23T15:22:48;97282.41;;;23.11
79053;BMP280;68451;49.510;6.026;2023-03-23T15:25:28;97242.38;;;22.91